Time;durP1;ratioP1;P1;durP2;ratioP2;P2;SDS_P1;SDS_P2;PMS_P1;PMS_P2;Temp;Humidity;BMP_temperature;BMP_pressure;BME280_temperature;BME280_humidity;BME280_pressure;Samples;Min_cycle;Max_cycle;Signal;HPM_P1;HPM_P2
2023/07/10 00:01:31;;;;;;;;;1.00;1.00;;;;;28.18;42.12;102010.91;5094086;27;45481;-84
2023/07/10 00:03:56;;;;;;;;;3.00;2.00;;;;;28.21;42.40;102018.53;5099158;27;45730;-84
2023/07/10 00:06:22;;;;;;;;;1.67;1.67;;;;;28.25;42.26;102016.31;5097714;27;45641;-84
2023/07/10 00:08:47;;;;;;;;;0.00;0.00;;;;;28.16;42.05;102002.22;5097778;27;45654;-84
2023/07/10 00:11:16;;;;;;;;;2.00;2.00;;;;;28.26;42.38;102015.31;5097883;27;45802;-84
2023/07/10 00:13:42;;;;;;;;;2.00;2.00;;;;;28.23;41.96;102000.47;5097600;27;45348;-84
2023/07/10 00:16:14;;;;;;;;;3.00;3.00;;;;;28.18;42.49;101990.31;5098806;27;45252;-84
2023/07/10 00:18:40;;;;;;;;;1.33;1.33;;;;;28.23;42.27;101999.63;5098755;27;45486;-84
2023/07/10 00:21:05;;;;;;;;;3.00;3.00;;;;;28.25;42.31;102000.25;5097472;27;45490;-84
2023/07/10 00:23:30;;;;;;;;;2.00;2.00;;;;;28.17;42.33;101983.34;5099176;27;45673;-84
2023/07/10 00:25:56;;;;;;;;;1.00;1.00;;;;;28.21;42.23;101997.13;5097838;27;45178;-84
2023/07/10 00:28:21;;;;;;;;;0.67;0.67;;;;;28.24;42.46;101996.75;5097070;27;45458;-84
2023/07/10 00:30:48;;;;;;;;;2.00;2.00;;;;;28.26;41.88;101993.91;5097433;27;45776;-83
2023/07/10 00:33:16;;;;;;;;;1.67;1.33;;;;;28.22;42.61;101984.59;5099153;27;45459;-84
2023/07/10 00:35:42;;;;;;;;;1.33;1.33;;;;;28.23;42.21;101994.28;5097647;27;45421;-84
2023/07/10 00:38:29;;;;;;;;;1.33;1.33;;;;;28.17;41.82;101991.34;5098664;27;46542;-84
2023/07/10 00:40:57;;;;;;;;;3.00;3.00;;;;;28.25;42.00;101995.72;5097227;27;45375;-83
2023/07/10 00:43:38;;;;;;;;;2.00;1.00;;;;;28.20;42.29;101991.97;5098429;27;45613;-84
2023/07/10 00:46:18;;;;;;;;;1.33;1.33;;;;;28.19;42.39;101988.47;5098031;27;45570;-84
2023/07/10 00:48:56;;;;;;;;;1.00;1.00;;;;;28.15;42.49;101985.38;5096552;27;45650;-84
2023/07/10 00:51:28;;;;;;;;;1.33;1.33;;;;;28.21;42.21;101990.97;5096851;27;45335;-84
2023/07/10 00:53:55;;;;;;;;;1.33;1.33;;;;;28.21;41.92;101993.66;5098260;27;45497;-84
2023/07/10 00:56:21;;;;;;;;;2.00;2.00;;;;;28.23;42.23;102003.13;5098156;27;45343;-84
2023/07/10 00:58:49;;;;;;;;;1.33;1.33;;;;;28.18;42.47;101995.66;5098857;27;45520;-83
2023/07/10 01:01:29;;;;;;;;;2.00;2.00;;;;;28.26;42.66;101999.25;5098187;27;45390;-84
2023/07/10 01:03:55;;;;;;;;;0.33;0.33;;;;;28.24;42.48;102003.94;5098142;27;45494;-84
2023/07/10 01:06:24;;;;;;;;;3.00;1.67;;;;;28.25;42.15;102002.94;5098439;27;45525;-84
2023/07/10 01:08:55;;;;;;;;;1.00;1.00;;;;;28.21;42.29;102001.69;5096982;27;47750;-83
2023/07/10 01:11:20;;;;;;;;;2.00;2.00;;;;;28.26;42.71;102013.44;5097636;27;45417;-83
2023/07/10 01:13:49;;;;;;;;;1.00;1.00;;;;;28.18;42.38;102000.22;5095662;27;45345;-84
2023/07/10 01:16:15;;;;;;;;;1.33;1.33;;;;;28.20;42.09;101995.50;5098246;27;45230;-84
2023/07/10 01:18:41;;;;;;;;;3.00;2.00;;;;;28.26;42.10;102010.75;5097793;27;45685;-84
2023/07/10 01:21:18;;;;;;;;;2.00;2.00;;;;;28.27;42.36;102006.22;5096699;27;45320;-84
2023/07/10 01:23:43;;;;;;;;;2.00;2.00;;;;;28.19;42.42;102001.84;5096198;27;45399;-85
2023/07/10 01:26:09;;;;;;;;;1.00;1.00;;;;;28.22;42.90;102000.63;5097945;27;45505;-84
2023/07/10 01:28:34;;;;;;;;;2.00;2.00;;;;;28.26;42.13;102010.75;5096735;27;46687;-84
2023/07/10 01:31:05;;;;;;;;;3.00;3.00;;;;;28.22;42.50;101995.28;5096106;27;45364;-84
2023/07/10 01:33:43;;;;;;;;;2.00;1.33;;;;;28.21;42.60;101982.94;5096650;27;45435;-84
2023/07/10 01:36:12;;;;;;;;;3.00;2.00;;;;;28.26;42.41;101993.91;5095824;27;45375;-84
2023/07/10 01:38:42;;;;;;;;;1.33;1.33;;;;;28.23;42.08;101994.28;5097855;27;46429;-84
2023/07/10 01:41:52;;;;;;;;;1.00;1.00;;;;;28.23;42.60;102000.47;5095832;27;45423;-84
2023/07/10 01:44:35;;;;;;;;;1.00;1.00;;;;;28.21;42.21;102001.69;5034326;28;45530;-83
2023/07/10 01:47:03;;;;;;;;;1.00;1.00;;;;;28.18;42.25;101998.34;5017809;28;45390;-84
2023/07/10 01:49:37;;;;;;;;;2.00;2.00;;;;;28.27;42.27;102000.88;5033976;28;46433;-84
2023/07/10 01:52:06;;;;;;;;;2.00;2.00;;;;;28.23;42.57;101995.09;5033890;28;45417;-85
2023/07/10 01:54:31;;;;;;;;;2.67;1.00;;;;;28.18;42.61;102000.22;5033521;28;45405;-85
2023/07/10 01:56:57;;;;;;;;;1.00;1.00;;;;;28.21;42.60;102001.69;5017686;28;45395;-84
2023/07/10 01:59:22;;;;;;;;;2.00;2.00;;;;;28.23;41.80;102007.66;5033826;28;46316;-85
2023/07/10 02:01:48;;;;;;;;;2.00;1.00;;;;;28.22;42.15;102008.66;5000742;28;45325;-84
2023/07/10 02:04:14;;;;;;;;;2.00;2.00;;;;;28.25;42.17;102016.31;5017772;28;45540;-84
2023/07/10 02:06:42;;;;;;;;;2.33;2.33;;;;;28.22;42.32;102012.16;5017099;28;45504;-85
2023/07/10 02:09:07;;;;;;;;;1.00;1.00;;;;;28.26;41.86;102020.66;5017109;28;48399;-85
2023/07/10 02:11:37;;;;;;;;;1.33;1.33;;;;;28.27;42.38;102030.31;5033786;28;45493;-85
2023/07/10 02:14:07;;;;;;;;;0.33;0.33;;;;;28.26;41.95;102023.31;5033656;28;45434;-84
2023/07/10 02:16:33;;;;;;;;;1.00;1.00;;;;;28.24;42.06;102028.84;5033630;28;45587;-84
2023/07/10 02:18:59;;;;;;;;;0.67;0.67;;;;;28.25;42.27;102037.72;5033293;28;45706;-85
2023/07/10 02:21:25;;;;;;;;;1.00;1.00;;;;;28.26;42.63;102029.47;5083646;27;45636;-84
2023/07/10 02:23:50;;;;;;;;;0.67;0.33;;;;;28.19;42.18;102017.91;5095434;27;45308;-85
2023/07/10 02:26:17;;;;;;;;;1.00;1.00;;;;;28.27;42.09;102033.00;5095601;27;45355;-85
2023/07/10 02:28:42;;;;;;;;;3.00;1.00;;;;;28.22;42.52;102011.34;5097063;27;45415;-85
2023/07/10 02:31:08;;;;;;;;;1.00;1.00;;;;;28.20;42.38;102016.06;5096181;27;45500;-85
2023/07/10 02:33:35;;;;;;;;;1.00;1.00;;;;;28.27;42.40;102019.59;5095688;27;45434;-86
2023/07/10 02:36:01;;;;;;;;;3.00;1.00;;;;;28.27;42.09;102024.97;5095415;27;45637;-85
2023/07/10 02:38:26;;;;;;;;;2.00;1.67;;;;;28.22;42.49;102022.03;5094863;27;47767;-85
2023/07/10 02:40:52;;;;;;;;;1.00;1.00;;;;;28.14;42.12;102007.78;5094479;27;45439;-84
2023/07/10 02:43:17;;;;;;;;;2.00;2.00;;;;;28.24;42.17;102014.66;5078425;27;45414;-84
2023/07/10 02:45:43;;;;;;;;;2.00;2.00;;;;;28.24;41.94;102034.19;5096311;27;45278;-83
2023/07/10 02:48:08;;;;;;;;;2.33;1.00;;;;;28.24;41.80;102028.84;5095072;27;47141;-84
2023/07/10 02:50:33;;;;;;;;;1.00;1.00;;;;;28.23;42.30;102026.38;5095147;27;45418;-85
2023/07/10 02:52:59;;;;;;;;;1.00;1.00;;;;;28.14;42.13;102009.63;5096126;27;45671;-85
2023/07/10 02:55:24;;;;;;;;;1.33;1.33;;;;;28.22;42.51;102032.75;5112437;27;45513;-85
2023/07/10 02:57:50;;;;;;;;;2.00;2.00;;;;;28.20;42.29;102016.91;5112095;27;47804;-84
2023/07/10 03:00:15;;;;;;;;;1.00;1.00;;;;;28.25;41.70;102027.84;5112283;27;45315;-84
2023/07/10 03:02:41;;;;;;;;;1.00;1.00;;;;;28.26;41.89;102031.34;5112176;27;45378;-85
2023/07/10 03:05:07;;;;;;;;;1.33;1.33;;;;;28.24;41.93;102028.03;5095287;27;45636;-84
2023/07/10 03:07:33;;;;;;;;;1.67;1.00;;;;;28.27;42.18;102033.00;5094731;27;46637;-85
2023/07/10 03:09:58;;;;;;;;;2.00;2.00;;;;;28.22;42.23;102035.41;5094982;27;45519;-84
2023/07/10 03:12:24;;;;;;;;;1.00;1.00;;;;;28.26;42.31;102039.38;5095016;27;45363;-84
2023/07/10 03:14:50;;;;;;;;;3.00;2.00;;;;;28.25;42.48;102040.38;5096218;27;45259;-84
2023/07/10 03:17:17;;;;;;;;;2.00;2.00;;;;;28.23;42.20;102037.91;5096169;27;45772;-84
2023/07/10 03:19:43;;;;;;;;;1.33;1.33;;;;;28.15;42.10;102024.69;5094540;27;45440;-84
2023/07/10 03:22:08;;;;;;;;;1.00;1.00;;;;;28.15;42.26;102022.84;5095474;27;45319;-84
2023/07/10 03:24:34;;;;;;;;;1.00;1.00;;;;;28.23;41.98;102040.59;5094313;27;45344;-84
2023/07/10 03:27:01;;;;;;;;;1.00;1.00;;;;;28.22;41.98;102038.94;5095323;27;47028;-83
2023/07/10 03:29:26;;;;;;;;;3.67;2.00;;;;;28.24;41.69;102047.59;5096118;27;45337;-84
2023/07/10 03:31:51;;;;;;;;;1.67;1.67;;;;;28.26;42.13;102053.56;5096456;27;45489;-84
2023/07/10 03:34:17;;;;;;;;;2.00;2.00;;;;;28.20;42.16;102035.63;5094552;27;45655;-84
2023/07/10 03:36:42;;;;;;;;;4.00;1.00;;;;;28.23;42.12;102042.44;5095929;27;46380;-84
2023/07/10 03:39:09;;;;;;;;;3.33;2.00;;;;;28.23;41.81;102045.13;5098711;27;45462;-84
2023/07/10 03:41:35;;;;;;;;;1.00;1.00;;;;;28.25;42.47;102046.56;5098329;27;45419;-84
2023/07/10 03:44:00;;;;;;;;;1.33;1.33;;;;;28.26;41.68;102052.75;5099677;27;45610;-84
2023/07/10 03:46:25;;;;;;;;;2.00;2.00;;;;;28.23;42.51;102048.63;5098135;27;47054;-83
2023/07/10 03:48:51;;;;;;;;;3.33;1.67;;;;;28.18;42.35;102035.81;5097924;27;45367;-84
2023/07/10 03:51:18;;;;;;;;;2.00;2.00;;;;;28.26;42.05;102055.44;5099170;27;45529;-83
2023/07/10 03:53:45;;;;;;;;;2.00;2.00;;;;;28.22;42.15;102046.13;5099002;27;45453;-84
2023/07/10 03:56:10;;;;;;;;;2.67;0.67;;;;;28.22;42.38;102046.13;5115364;27;47045;-83
2023/07/10 03:58:40;;;;;;;;;3.00;2.00;;;;;28.20;42.15;102049.00;5115040;27;46046;-84
2023/07/10 04:01:06;;;;;;;;;2.67;2.00;;;;;28.24;41.99;102054.78;5099397;27;45425;-84
2023/07/10 04:03:33;;;;;;;;;1.33;1.33;;;;;28.22;41.91;102054.97;5097745;27;45354;-83
2023/07/10 04:06:00;;;;;;;;;1.00;1.00;;;;;28.24;42.15;102049.44;5097473;27;47265;-84
2023/07/10 04:08:33;;;;;;;;;2.00;2.00;;;;;28.10;42.36;102033.28;5097844;27;45309;-84
2023/07/10 04:11:02;;;;;;;;;1.00;1.00;;;;;28.20;42.07;102045.50;5099446;27;45334;-83
2023/07/10 04:13:28;;;;;;;;;0.00;0.00;;;;;28.25;41.75;102056.44;5098864;27;45314;-83
2023/07/10 04:16:03;;;;;;;;;2.00;2.00;;;;;28.25;41.64;102067.16;5098719;27;45994;-84
2023/07/10 04:18:40;;;;;;;;;1.00;1.00;;;;;28.21;42.16;102049.84;5098734;27;45449;-84
2023/07/10 04:21:09;;;;;;;;;1.00;1.00;;;;;28.22;41.72;102059.50;5098940;27;45337;-84
2023/07/10 04:23:35;;;;;;;;;1.33;1.33;;;;;28.18;41.86;102056.41;5099346;27;45273;-84
2023/07/10 04:26:00;;;;;;;;;2.33;1.00;;;;;28.27;42.01;102070.44;5097971;27;46247;-84
2023/07/10 04:28:27;;;;;;;;;2.00;1.00;;;;;28.20;41.90;102053.53;5098778;27;45342;-84
2023/07/10 04:30:54;;;;;;;;;2.00;2.00;;;;;28.22;42.16;102059.50;5096668;27;45351;-84
2023/07/10 04:33:20;;;;;;;;;0.00;0.00;;;;;28.28;42.37;102070.28;5098271;27;45423;-85
2023/07/10 04:35:55;;;;;;;;;1.67;1.67;;;;;28.30;42.25;102070.06;5098749;27;46316;-84
2023/07/10 04:38:26;;;;;;;;;2.33;1.00;;;;;28.31;42.29;102066.38;5096087;27;45423;-84
2023/07/10 04:40:59;;;;;;;;;1.00;1.00;;;;;28.21;41.54;102057.88;5097280;27;45375;-83
2023/07/10 04:43:27;;;;;;;;;2.00;1.33;;;;;28.26;41.97;102066.94;5092576;27;45663;-84
2023/07/10 04:45:54;;;;;;;;;1.33;1.33;;;;;28.18;42.10;102053.72;5097351;27;46479;-84
2023/07/10 04:48:20;;;;;;;;;1.00;1.00;;;;;28.29;41.82;102069.25;5098468;27;45374;-84
2023/07/10 04:50:48;;;;;;;;;1.00;1.00;;;;;28.30;41.66;102075.41;5093921;27;45339;-84
2023/07/10 04:53:14;;;;;;;;;1.67;1.33;;;;;28.34;41.97;102076.69;5076825;27;45621;-84
2023/07/10 04:55:39;;;;;;;;;3.00;2.00;;;;;28.39;42.08;102084.94;5077415;27;46418;-84
2023/07/10 04:58:04;;;;;;;;;0.00;0.00;;;;;28.44;42.24;102091.59;5076510;27;45484;-84
2023/07/10 05:00:31;;;;;;;;;1.00;1.00;;;;;28.43;42.07;102085.41;5077930;27;45297;-84
2023/07/10 05:02:56;;;;;;;;;3.33;2.00;;;;;28.43;41.38;102095.28;5079985;27;45686;-84
2023/07/10 05:05:21;;;;;;;;;1.00;1.00;;;;;28.49;41.89;102097.22;5096824;27;46141;-84
2023/07/10 05:07:47;;;;;;;;;1.00;1.00;;;;;28.50;42.13;102091.66;5097608;27;45320;-84
2023/07/10 05:10:12;;;;;;;;;2.33;1.00;;;;;28.51;41.53;102096.00;5098200;27;45423;-84
2023/07/10 05:12:37;;;;;;;;;1.00;1.00;;;;;28.54;41.47;102093.94;5096734;27;45364;-83
2023/07/10 05:15:03;;;;;;;;;0.67;0.67;;;;;28.55;41.24;102091.06;5098034;27;47195;-83
2023/07/10 05:17:28;;;;;;;;;1.00;1.00;;;;;28.54;41.61;102093.94;5096933;27;45539;-84
2023/07/10 05:19:54;;;;;;;;;2.00;2.00;;;;;28.57;41.24;102089.06;5098100;27;45403;-84
2023/07/10 05:22:19;;;;;;;;;2.00;2.00;;;;;28.57;41.40;102091.72;5097974;27;45479;-84
2023/07/10 05:24:46;;;;;;;;;0.67;0.67;;;;;28.60;41.34;102102.03;5096535;27;46386;-84
2023/07/10 05:27:11;;;;;;;;;2.00;2.00;;;;;28.68;41.55;102113.59;5096684;27;45446;-84
2023/07/10 05:29:36;;;;;;;;;2.67;2.67;;;;;28.68;41.37;102110.91;5096486;27;45395;-83
2023/07/10 05:32:02;;;;;;;;;2.00;2.00;;;;;28.65;41.54;102092.59;5095955;27;45450;-83
2023/07/10 05:34:27;;;;;;;;;1.00;1.00;;;;;28.70;41.67;102108.91;5096080;27;45470;-84
2023/07/10 05:36:52;;;;;;;;;1.00;1.00;;;;;28.72;41.23;102093.47;5095907;27;45531;-83
2023/07/10 05:39:18;;;;;;;;;1.67;1.67;;;;;28.78;41.06;102100.69;5096463;27;45392;-82
2023/07/10 05:41:43;;;;;;;;;4.67;4.67;;;;;28.78;39.88;102108.72;5097635;27;45348;-77
2023/07/10 05:44:08;;;;;;;;;7.33;7.33;;;;;28.66;39.48;102108.47;5096094;27;45417;-77
2023/07/10 05:46:34;;;;;;;;;6.00;4.33;;;;;28.59;39.00;102116.44;5092271;27;45392;-75
2023/07/10 05:48:59;;;;;;;;;5.00;4.00;;;;;28.49;39.53;102113.28;5100188;27;45455;-77
2023/07/10 05:51:24;;;;;;;;;4.33;4.33;;;;;28.40;39.52;102099.16;5084978;27;45419;-74
2023/07/10 05:53:50;;;;;;;;;5.00;5.00;;;;;28.34;39.67;102091.94;5112461;27;46936;-74
2023/07/10 05:56:15;;;;;;;;;3.67;3.00;;;;;28.25;39.35;102085.88;5097683;27;45473;-77
2023/07/10 05:58:41;;;;;;;;;6.00;5.00;;;;;28.21;40.33;102095.31;5112812;27;45448;-81
2023/07/10 06:01:11;;;;;;;;;5.33;4.33;;;;;28.21;40.49;102093.44;5096571;27;45529;-81
2023/07/10 06:03:36;;;;;;;;;5.33;5.00;;;;;28.18;40.34;102081.28;5107899;27;46813;-81
2023/07/10 06:06:04;;;;;;;;;4.00;4.00;;;;;28.28;40.01;102093.53;5096560;27;45331;-82
2023/07/10 06:08:31;;;;;;;;;5.00;3.67;;;;;28.22;40.17;102088.94;5092887;27;45409;-79
2023/07/10 06:10:57;;;;;;;;;4.00;4.00;;;;;28.14;40.35;102092.56;5103716;27;45393;-79
2023/07/10 06:13:23;;;;;;;;;7.33;5.00;;;;;28.02;40.24;102089.59;5095434;27;46158;-80
2023/07/10 06:15:52;;;;;;;;;3.33;3.33;;;;;27.94;39.95;102091.38;5097501;27;45431;-80
2023/07/10 06:18:18;;;;;;;;;6.33;3.00;;;;;27.85;40.63;102092.50;5095637;27;45339;-79
2023/07/10 06:20:53;;;;;;;;;3.33;3.33;;;;;27.74;40.12;102088.44;5095430;27;45436;-79
2023/07/10 06:23:20;;;;;;;;;5.33;5.33;;;;;27.71;40.98;102088.84;5091726;27;47883;-77
2023/07/10 06:25:46;;;;;;;;;3.67;3.67;;;;;27.68;40.52;102089.22;5076085;27;45391;-77
2023/07/10 06:28:12;;;;;;;;;5.00;4.33;;;;;27.59;40.77;102085.81;5074992;27;45303;-80
2023/07/10 06:30:39;;;;;;;;;3.67;3.33;;;;;27.52;40.89;102088.44;5075990;27;45323;-80
2023/07/10 06:33:04;;;;;;;;;4.67;4.00;;;;;27.49;40.75;102089.63;5076504;27;45466;-82
2023/07/10 06:35:30;;;;;;;;;5.67;4.67;;;;;27.51;41.32;102086.75;5074924;27;45398;-81
2023/07/10 06:37:55;;;;;;;;;5.00;5.00;;;;;27.40;40.77;102088.09;5075222;27;45600;-82
2023/07/10 06:40:20;;;;;;;;;5.67;5.00;;;;;27.32;41.12;102083.69;5092279;27;45361;-82
2023/07/10 06:42:46;;;;;;;;;6.00;4.00;;;;;27.25;41.21;102091.59;5075173;27;47454;-76
2023/07/10 06:45:12;;;;;;;;;7.67;6.67;;;;;27.20;41.80;102099.34;5075882;27;45473;-79
2023/07/10 06:47:42;;;;;;;;;4.33;4.00;;;;;27.11;41.40;102087.91;5076637;27;45335;-79
2023/07/10 06:50:10;;;;;;;;;6.00;4.33;;;;;27.07;41.52;102083.94;5074692;27;45448;-84
2023/07/10 06:52:38;;;;;;;;;5.00;5.00;;;;;27.21;41.53;102092.16;5094744;27;46626;-82
2023/07/10 06:55:05;;;;;;;;;4.33;4.33;;;;;27.26;41.27;102095.94;5096523;27;45353;-82
2023/07/10 06:57:30;;;;;;;;;5.00;4.67;;;;;27.36;41.75;102095.66;5097081;27;45259;-82
2023/07/10 06:59:55;;;;;;;;;5.00;3.00;;;;;27.35;41.93;102074.47;5112498;27;45291;-82
2023/07/10 07:02:21;;;;;;;;;5.00;3.00;;;;;27.46;41.71;102081.97;5112561;27;46701;-82
2023/07/10 07:04:46;;;;;;;;;4.00;3.00;;;;;27.54;41.38;102080.22;5097793;27;45361;-82
2023/07/10 07:07:11;;;;;;;;;3.33;3.00;;;;;27.59;41.30;102077.81;5094985;27;45374;-82
2023/07/10 07:09:37;;;;;;;;;3.00;3.00;;;;;27.66;41.20;102084.06;5095288;27;45550;-82
2023/07/10 07:12:02;;;;;;;;;6.00;3.00;;;;;27.73;41.12;102087.63;5097172;27;46310;-82
2023/07/10 07:14:28;;;;;;;;;5.00;4.00;;;;;27.71;41.15;102078.97;5098330;27;45388;-83
2023/07/10 07:16:54;;;;;;;;;6.67;4.33;;;;;27.82;41.20;102076.84;5100495;27;45475;-81
2023/07/10 07:19:20;;;;;;;;;3.00;3.00;;;;;27.86;41.58;102080.81;5100143;27;45429;-82
2023/07/10 07:21:45;;;;;;;;;3.00;3.00;;;;;27.88;41.68;102069.91;5099766;27;46095;-82
2023/07/10 07:24:10;;;;;;;;;3.00;3.00;;;;;27.90;41.26;102079.38;5098656;27;45402;-81
2023/07/10 07:26:36;;;;;;;;;4.00;4.00;;;;;27.89;41.49;102064.38;5098524;27;45328;-82
2023/07/10 07:29:01;;;;;;;;;7.00;4.00;;;;;27.94;41.29;102064.63;5099575;27;45480;-82
2023/07/10 07:31:27;;;;;;;;;3.00;3.00;;;;;27.99;42.04;102066.72;5098208;27;45677;-82
2023/07/10 07:33:54;;;;;;;;;3.00;3.00;;;;;27.96;41.55;102062.59;5099547;27;45359;-82
2023/07/10 07:36:20;;;;;;;;;3.33;3.33;;;;;28.07;41.31;102066.59;5100034;27;45376;-82
2023/07/10 07:38:45;;;;;;;;;4.00;4.00;;;;;28.06;41.37;102056.06;5098524;27;45390;-82
2023/07/10 07:41:11;;;;;;;;;4.00;3.00;;;;;28.05;41.39;102060.59;5098214;27;46365;-83
2023/07/10 07:43:36;;;;;;;;;3.33;3.33;;;;;28.06;40.89;102056.91;5098253;27;45403;-82
2023/07/10 07:46:02;;;;;;;;;4.67;3.67;;;;;28.13;41.08;102054.28;5099846;27;45452;-82
2023/07/10 07:48:27;;;;;;;;;5.00;3.33;;;;;28.13;41.33;102056.97;5098393;27;45310;-82
2023/07/10 07:50:58;;;;;;;;;3.33;3.33;;;;;28.15;41.56;102056.78;5099190;27;45970;-82
2023/07/10 07:53:23;;;;;;;;;3.00;3.00;;;;;28.19;41.02;102066.06;5100087;27;45307;-82
2023/07/10 07:55:48;;;;;;;;;4.33;4.33;;;;;28.16;41.16;102053.06;5115721;27;45313;-82
2023/07/10 07:58:14;;;;;;;;;6.67;4.33;;;;;28.16;41.26;102059.25;5099578;27;45338;-81
2023/07/10 08:00:39;;;;;;;;;4.00;3.00;;;;;28.20;41.26;102057.03;5097718;27;47005;-81
2023/07/10 08:03:04;;;;;;;;;4.67;3.33;;;;;28.23;41.33;102070.03;5114970;27;45370;-82
2023/07/10 08:05:30;;;;;;;;;5.00;4.00;;;;;28.23;41.28;102067.34;5098092;27;45435;-82
2023/07/10 08:07:55;;;;;;;;;3.00;3.00;;;;;28.25;40.99;102067.16;5098778;27;45279;-82
2023/07/10 08:10:21;;;;;;;;;4.00;3.00;;;;;28.27;41.27;102065.94;5097847;27;45977;-81
2023/07/10 08:12:46;;;;;;;;;3.00;3.00;;;;;28.27;41.19;102055.22;5097657;27;46004;-81
2023/07/10 08:15:12;;;;;;;;;4.00;4.00;;;;;28.27;41.13;102057.91;5098033;27;45346;-81
2023/07/10 08:17:37;;;;;;;;;6.67;4.67;;;;;28.29;41.06;102065.72;5097516;27;45507;-82
2023/07/10 08:20:03;;;;;;;;;4.00;3.33;;;;;28.32;41.56;102056.47;5098934;27;45417;-81
2023/07/10 08:22:28;;;;;;;;;6.00;5.00;;;;;28.33;41.11;102061.66;5097092;27;45754;-81
2023/07/10 08:24:55;;;;;;;;;5.33;5.00;;;;;28.29;40.98;102058.53;5098918;27;45692;-81
2023/07/10 08:27:20;;;;;;;;;4.00;4.00;;;;;28.35;41.16;102064.97;5098604;27;45532;-82
2023/07/10 08:29:45;;;;;;;;;5.00;3.00;;;;;28.34;41.18;102060.63;5097334;27;46329;-82
2023/07/10 08:32:11;;;;;;;;;5.00;3.33;;;;;28.38;40.94;102067.25;5098091;27;45422;-82
2023/07/10 08:34:37;;;;;;;;;3.00;3.00;;;;;28.35;41.30;102058.78;5098674;27;45344;-82
2023/07/10 08:37:02;;;;;;;;;3.00;3.00;;;;;28.31;41.26;102046.81;5097720;27;45523;-82
2023/07/10 08:39:27;;;;;;;;;3.00;3.00;;;;;28.34;41.20;102052.59;5097622;27;45415;-82
2023/07/10 08:42:02;;;;;;;;;4.33;4.33;;;;;28.36;41.09;102058.59;5096581;27;45464;-83
2023/07/10 08:44:36;;;;;;;;;3.00;3.00;;;;;28.39;41.10;102060.06;5099045;27;45304;-82
2023/07/10 08:47:26;;;;;;;;;3.00;3.00;;;;;28.43;41.35;102057.81;5100478;27;45615;-82
2023/07/10 08:49:59;;;;;;;;;2.33;2.33;;;;;28.43;41.43;102055.97;5098723;27;47244;-82
2023/07/10 08:52:37;;;;;;;;;3.33;3.33;;;;;28.45;41.03;102055.78;5098400;27;45647;-81
2023/07/10 08:55:03;;;;;;;;;4.00;4.00;;;;;28.40;41.26;102045.63;5099252;27;45345;-81
2023/07/10 08:57:33;;;;;;;;;6.00;4.00;;;;;28.46;41.82;102062.81;5098477;27;45262;-81
2023/07/10 09:00:06;;;;;;;;;4.00;4.00;;;;;28.43;41.09;102047.94;5097070;27;47095;-81
2023/07/10 09:02:48;;;;;;;;;6.00;5.00;;;;;28.47;41.21;102051.91;5099598;27;45357;-82
2023/07/10 09:05:20;;;;;;;;;4.00;4.00;;;;;28.44;41.24;102052.28;5099137;27;45397;-82
2023/07/10 09:07:48;;;;;;;;;3.67;3.67;;;;;28.35;40.78;102035.53;5098374;27;45394;-82
2023/07/10 09:10:25;;;;;;;;;5.33;3.67;;;;;28.44;41.05;102049.59;5098337;27;46578;-81
2023/07/10 09:12:53;;;;;;;;;2.00;2.00;;;;;28.50;40.84;102056.03;5099651;27;45605;-81
2023/07/10 09:15:27;;;;;;;;;4.33;3.00;;;;;28.46;41.33;102044.06;5099891;27;45405;-83
2023/07/10 09:18:19;;;;;;;;;4.00;3.00;;;;;28.45;40.72;102037.88;5100333;27;45329;-82
2023/07/10 09:20:48;;;;;;;;;2.00;2.00;;;;;28.43;41.05;102042.59;5098337;27;45530;-82
2023/07/10 09:23:22;;;;;;;;;3.67;2.00;;;;;28.51;40.94;102063.06;5098288;27;45401;-82
2023/07/10 09:25:56;;;;;;;;;3.00;3.00;;;;;28.48;40.66;102040.19;5098072;27;45274;-82
2023/07/10 09:28:23;;;;;;;;;4.00;4.00;;;;;28.47;40.85;102043.88;5113935;27;45555;-82
2023/07/10 09:31:01;;;;;;;;;2.00;2.00;;;;;28.51;41.39;102052.34;5098148;27;46410;-82
2023/07/10 09:33:42;;;;;;;;;3.00;3.00;;;;;28.55;40.93;102048.25;5097533;27;45424;-82
2023/07/10 09:36:19;;;;;;;;;3.67;3.67;;;;;28.55;40.84;102045.56;5096896;27;45484;-82
2023/07/10 09:38:47;;;;;;;;;3.33;3.33;;;;;28.49;41.00;102046.38;5096222;27;45425;-82
2023/07/10 09:41:27;;;;;;;;;2.00;2.00;;;;;28.56;41.24;102036.53;5097338;27;46357;-83
2023/07/10 09:44:15;;;;;;;;;3.00;3.00;;;;;28.57;41.05;102042.72;5095158;27;45498;-82
2023/07/10 09:46:40;;;;;;;;;2.00;2.00;;;;;28.58;41.21;102039.00;5097771;27;45315;-82
2023/07/10 09:49:15;;;;;;;;;3.00;3.00;;;;;28.55;41.25;102031.38;5096069;27;45284;-82
2023/07/10 09:52:02;;;;;;;;;2.67;2.67;;;;;28.60;40.60;102039.63;5097539;27;46699;-82
2023/07/10 09:54:38;;;;;;;;;3.67;3.33;;;;;28.58;40.23;102031.78;5096874;27;45318;-82
2023/07/10 09:57:12;;;;;;;;;3.00;3.00;;;;;28.55;40.92;102021.47;5095475;27;45457;-82
2023/07/10 09:59:37;;;;;;;;;2.00;1.33;;;;;28.55;41.47;102028.69;5097360;27;45308;-82
2023/07/10 10:02:23;;;;;;;;;4.00;3.00;;;;;28.59;41.21;102035.31;5113024;27;46635;-82
2023/07/10 10:05:00;;;;;;;;;4.67;3.67;;;;;28.61;40.63;102031.41;5092733;27;45454;-82
2023/07/10 10:07:35;;;;;;;;;2.00;2.00;;;;;28.59;40.64;102037.97;5075241;27;45343;-82
2023/07/10 10:10:04;;;;;;;;;3.33;3.33;;;;;28.52;41.15;102027.25;5076079;27;45323;-81
2023/07/10 10:12:34;;;;;;;;;2.00;2.00;;;;;28.53;40.77;102018.16;5076371;27;46467;-81
2023/07/10 10:15:06;;;;;;;;;2.00;2.00;;;;;28.57;41.19;102021.28;5075181;28;46062;-81
2023/07/10 10:17:37;;;;;;;;;3.00;3.00;;;;;28.59;41.14;102028.09;5076582;27;45389;-81
2023/07/10 10:20:19;;;;;;;;;3.00;3.00;;;;;28.55;40.75;102016.13;5075055;28;45498;-81
2023/07/10 10:22:47;;;;;;;;;2.00;2.00;;;;;28.58;40.84;102018.41;5075906;27;45853;-80
2023/07/10 10:25:17;;;;;;;;;3.33;3.33;;;;;28.62;41.09;102025.00;5074975;27;45333;-80
2023/07/10 10:28:04;;;;;;;;;2.67;2.67;;;;;28.62;41.04;102040.25;5076977;27;45456;-81
2023/07/10 10:30:32;;;;;;;;;3.67;3.00;;;;;28.63;41.18;102029.34;5075274;27;45628;-81
2023/07/10 10:33:07;;;;;;;;;2.00;1.00;;;;;28.63;41.15;102017.81;5075757;27;45645;-81
2023/07/10 10:35:51;;;;;;;;;3.00;3.00;;;;;28.62;40.87;102022.31;5076064;27;45381;-81
2023/07/10 10:38:27;;;;;;;;;3.33;3.33;;;;;28.63;41.01;102021.31;5076519;27;45401;-82
2023/07/10 10:41:19;;;;;;;;;2.00;2.00;;;;;28.64;40.96;102016.78;5093114;27;45484;-81
2023/07/10 10:44:02;;;;;;;;;2.00;2.00;;;;;28.61;40.84;102006.47;5075161;27;45448;-80
2023/07/10 10:46:30;;;;;;;;;3.00;3.00;;;;;28.65;40.84;102012.28;5074583;28;45688;-81
2023/07/10 10:49:21;;;;;;;;;4.00;4.00;;;;;28.65;40.83;102007.72;5075088;27;45446;-81
2023/07/10 10:52:02;;;;;;;;;3.00;3.00;;;;;28.61;40.58;102015.34;5087569;27;45407;-81
2023/07/10 10:54:42;;;;;;;;;2.00;2.00;;;;;28.59;40.94;102003.16;5096160;27;46153;-81
2023/07/10 10:57:36;;;;;;;;;3.00;2.00;;;;;28.66;40.91;102013.91;5096284;27;45319;-81
2023/07/10 11:00:27;;;;;;;;;2.00;2.00;;;;;28.67;40.90;102015.56;5073706;28;45430;-81
2023/07/10 11:03:17;;;;;;;;;3.00;2.33;;;;;28.67;41.24;102012.91;5055656;27;45376;-81
2023/07/10 11:05:47;;;;;;;;;2.00;2.00;;;;;28.65;40.43;102009.59;5056126;28;45457;-81
2023/07/10 11:08:24;;;;;;;;;3.33;3.33;;;;;28.61;41.14;102007.31;5073564;28;45452;-81
2023/07/10 11:10:52;;;;;;;;;3.00;3.00;;;;;28.66;40.67;102006.72;5073196;28;45294;-81
2023/07/10 11:13:29;;;;;;;;;2.00;2.00;;;;;28.65;40.79;102004.25;5072836;28;45340;-81
2023/07/10 11:15:55;;;;;;;;;2.00;2.00;;;;;28.65;40.90;102004.25;5072799;28;46432;-81
2023/07/10 11:18:22;;;;;;;;;4.00;3.00;;;;;28.63;40.72;101996.38;5072416;28;45364;-81
2023/07/10 11:20:48;;;;;;;;;2.33;2.33;;;;;28.65;40.77;102004.25;5055855;28;45400;-82
2023/07/10 11:23:43;;;;;;;;;2.33;2.33;;;;;28.67;40.76;102007.53;5073232;28;45324;-81
2023/07/10 11:26:23;;;;;;;;;1.67;1.67;;;;;28.51;40.48;101974.72;5073064;28;46350;-81
2023/07/10 11:28:58;;;;;;;;;3.00;3.00;;;;;28.62;41.02;101998.22;5072991;28;45493;-81
2023/07/10 11:31:37;;;;;;;;;2.00;2.00;;;;;28.63;40.38;101991.88;5073208;28;45585;-81
2023/07/10 11:34:05;;;;;;;;;3.00;3.00;;;;;28.68;40.87;101985.06;5072886;28;45569;-81